HTDA/DAR METAR and TAF weather

Enter ICAO airport designator
Station Type Date Time Source
HTDA METAR 2019/02/20 21:00 UTC NOAA

HTDA 202100Z 00000KT 9999 FEW012 27/25 Q1014 NOSIG


Station Type Date Time Source
HTDA Decoded METAR 2019/02/20 21:00 UTC NOAA

Dar Es Salaam Airport, Tanzania (HTDA) 06-52S 039-12E 55M
Feb 20, 2019 - 04:00 PM EST / 2019.02.20 2100 UTC
Wind: Calm:0
Visibility: greater than 7 mile(s):0
Sky conditions: mostly clear
Temperature: 80 F (27 C)
Dew Point: 77 F (25 C)
Relative Humidity: 88%
Pressure (altimeter): 29.94 in. Hg (1014 hPa)
ob: HTDA 202100Z 00000KT 9999 FEW012 27/25 Q1014 NOSIG
cycle: 21

Station Type Date Time Source
HTDA TAF 2019/02/20 18:30 UTC NOAA

TAF TAF HTDA 201700Z 2018/2124 07010KT 9999 SCT015
BECMG 2023/2102 SCT014 FEW016CB BKN080
TEMPO 2103/2109 5000 TSRA
BECMG 2116/2118 SCT017


Example: see airport list